createdAt,value
2022-11-13T00:01:26.904Z,10.50
2022-11-13T00:04:12.721Z,10.41
2022-11-13T00:06:59.624Z,10.52
2022-11-13T00:09:45.618Z,10.48
2022-11-13T00:12:31.594Z,10.29
2022-11-13T00:15:17.335Z,10.39
2022-11-13T00:18:03.361Z,10.29
2022-11-13T00:20:49.402Z,10.24
2022-11-13T00:23:36.135Z,10.11
2022-11-13T00:26:24.235Z,10.14
2022-11-13T00:29:10.287Z,10.21
2022-11-13T00:31:56.242Z,10.17
2022-11-13T00:34:47.535Z,10.14
2022-11-13T00:37:33.990Z,10.07
2022-11-13T00:40:19.957Z,10.10
2022-11-13T00:43:05.699Z,9.99
2022-11-13T00:45:51.477Z,9.99
2022-11-13T00:48:37.765Z,10.02
2022-11-13T00:51:23.896Z,9.99
2022-11-13T00:54:09.586Z,9.97
2022-11-13T00:56:55.309Z,9.96
2022-11-13T00:59:41.190Z,9.86
2022-11-13T01:02:26.916Z,9.83
2022-11-13T01:05:12.590Z,9.67
2022-11-13T01:07:58.324Z,9.65
2022-11-13T01:10:53.181Z,9.65
2022-11-13T01:13:41.625Z,9.78
2022-11-13T01:16:28.278Z,9.62
2022-11-13T01:19:14.367Z,9.65
2022-11-13T01:22:00.253Z,9.53
2022-11-13T01:24:46.015Z,9.58
2022-11-13T01:27:32.059Z,9.59
2022-11-13T01:30:17.849Z,9.52
2022-11-13T01:33:03.601Z,9.53
2022-11-13T01:35:49.628Z,9.50
2022-11-13T01:38:36.813Z,9.52
2022-11-13T01:41:25.912Z,9.43
2022-11-13T01:44:14.072Z,9.43
2022-11-13T01:47:00.211Z,9.32
2022-11-13T01:49:46.610Z,9.44
2022-11-13T01:52:38.881Z,9.44
2022-11-13T01:55:24.657Z,9.46
2022-11-13T01:58:11.349Z,9.28
2022-11-13T02:03:43.038Z,9.37
2022-11-13T02:06:34.979Z,9.29
2022-11-13T02:09:24.122Z,9.31
2022-11-13T02:12:15.027Z,9.22
2022-11-13T02:15:03.799Z,9.19
2022-11-13T02:17:55.750Z,9.21
2022-11-13T02:20:52.837Z,9.19
2022-11-13T02:24:01.561Z,9.23
2022-11-13T02:26:49.718Z,9.28
2022-11-13T02:29:35.493Z,9.30
2022-11-13T02:32:21.567Z,9.23
2022-11-13T02:35:07.338Z,9.26
2022-11-13T02:37:55.126Z,9.21
2022-11-13T02:40:41.157Z,9.30
2022-11-13T02:43:26.909Z,9.32
2022-11-13T02:46:12.950Z,9.26
2022-11-13T02:48:58.703Z,9.22
2022-11-13T02:51:44.567Z,9.15
2022-11-13T02:54:30.276Z,9.31
2022-11-13T02:57:15.982Z,9.17
2022-11-13T03:00:02.057Z,9.11
2022-11-13T03:02:47.972Z,9.13
2022-11-13T03:05:33.950Z,9.12
2022-11-13T03:08:19.894Z,9.16
2022-11-13T03:11:09.871Z,8.96
2022-11-13T03:13:55.545Z,9.14
2022-11-13T03:16:41.458Z,9.14
2022-11-13T03:19:28.283Z,9.13
2022-11-13T03:22:13.909Z,9.11
2022-11-13T03:24:59.608Z,9.11
2022-11-13T03:27:45.274Z,9.01
2022-11-13T03:30:31.153Z,8.89
2022-11-13T03:33:16.787Z,8.93
2022-11-13T03:36:02.413Z,8.83
2022-11-13T03:38:48.206Z,8.88
2022-11-13T03:41:33.891Z,8.89
2022-11-13T03:44:19.495Z,8.83
2022-11-13T03:47:05.412Z,8.80
2022-11-13T03:49:51.062Z,8.78
2022-11-13T03:52:36.805Z,8.70
2022-11-13T03:55:22.596Z,8.76
2022-11-13T03:58:08.494Z,8.58
2022-11-13T04:00:55.666Z,8.50
2022-11-13T04:03:41.378Z,8.65
2022-11-13T04:06:26.923Z,8.63
2022-11-13T04:09:12.615Z,8.53
2022-11-13T04:11:58.229Z,8.57
2022-11-13T04:14:44.029Z,8.59
2022-11-13T04:17:30.024Z,8.56
2022-11-13T04:20:16.405Z,8.47
2022-11-13T04:23:04.641Z,8.32
2022-11-13T04:25:50.717Z,8.34
2022-11-13T04:28:36.474Z,8.31
2022-11-13T04:31:22.248Z,8.41
2022-11-13T04:34:08.490Z,8.39
2022-11-13T04:36:54.114Z,8.27
2022-11-13T04:39:39.891Z,8.34
2022-11-13T04:42:44.026Z,8.45
2022-11-13T04:45:30.279Z,8.38
2022-11-13T04:48:15.971Z,8.39
2022-11-13T04:51:01.641Z,8.27
2022-11-13T04:53:47.441Z,8.31
2022-11-13T04:56:33.193Z,8.38
2022-11-13T04:59:18.825Z,8.44
2022-11-13T05:02:04.936Z,8.44
2022-11-13T05:04:50.840Z,8.55
2022-11-13T05:07:37.104Z,8.60
2022-11-13T05:10:22.755Z,8.57
2022-11-13T05:13:08.350Z,8.57
2022-11-13T05:16:04.270Z,8.63
2022-11-13T05:18:50.363Z,8.55
2022-11-13T05:21:37.622Z,8.56
2022-11-13T05:24:23.593Z,8.61
2022-11-13T05:27:12.848Z,8.68
2022-11-13T05:30:03.102Z,8.66
2022-11-13T05:32:49.193Z,8.48
2022-11-13T05:35:34.843Z,8.73
2022-11-13T05:38:20.670Z,8.72
2022-11-13T05:41:09.788Z,8.73
2022-11-13T05:43:59.432Z,8.81
2022-11-13T05:46:45.608Z,8.87
2022-11-13T05:49:31.771Z,8.91
2022-11-13T05:52:17.746Z,8.91
2022-11-13T05:55:03.991Z,8.70
2022-11-13T05:57:49.705Z,8.69
2022-11-13T06:00:35.308Z,8.81
2022-11-13T06:03:21.079Z,8.86
2022-11-13T06:06:08.901Z,9.00
2022-11-13T06:08:55.707Z,8.96
2022-11-13T06:11:41.381Z,8.81
2022-11-13T06:14:27.273Z,8.97
2022-11-13T06:17:13.177Z,9.01
2022-11-13T06:19:58.947Z,8.89
2022-11-13T06:22:44.616Z,9.07
2022-11-13T06:25:30.341Z,9.07
2022-11-13T06:28:16.072Z,8.77
2022-11-13T06:31:04.037Z,8.78
2022-11-13T06:33:49.760Z,8.91
2022-11-13T06:36:37.094Z,8.87
2022-11-13T06:39:22.860Z,8.82
2022-11-13T06:42:08.550Z,9.01
2022-11-13T06:44:54.370Z,9.11
2022-11-13T06:47:40.031Z,8.93
2022-11-13T06:50:25.837Z,8.96
2022-11-13T06:53:11.522Z,8.97
2022-11-13T06:55:57.654Z,9.06
2022-11-13T06:58:43.836Z,9.18
2022-11-13T07:01:29.541Z,9.26
2022-11-13T07:04:15.712Z,9.16
2022-11-13T07:07:01.464Z,9.30
2022-11-13T07:09:47.529Z,9.22
2022-11-13T07:12:33.535Z,9.30
2022-11-13T07:15:19.260Z,9.28
2022-11-13T07:18:06.304Z,9.46
2022-11-13T07:20:52.443Z,9.46
2022-11-13T07:23:42.901Z,9.43
2022-11-13T07:26:29.286Z,9.46
2022-11-13T07:29:15.791Z,9.64
2022-11-13T07:32:01.949Z,9.71
2022-11-13T07:34:47.668Z,9.52
2022-11-13T07:37:33.704Z,9.32
2022-11-13T07:40:19.261Z,9.54
2022-11-13T07:43:06.010Z,9.62
2022-11-13T07:45:54.702Z,9.49
2022-11-13T07:48:40.797Z,9.56
2022-11-13T07:51:26.491Z,9.78
2022-11-13T07:54:12.251Z,9.89
2022-11-13T07:56:57.882Z,9.96
2022-11-13T07:59:43.630Z,10.13
2022-11-13T08:02:29.391Z,10.28
2022-11-13T08:05:15.442Z,10.34
2022-11-13T08:08:01.724Z,10.42
2022-11-13T08:10:47.341Z,10.50
2022-11-13T08:13:34.294Z,10.64
2022-11-13T08:16:20.206Z,10.53
2022-11-13T08:19:05.950Z,10.31
2022-11-13T08:21:51.705Z,10.52
2022-11-13T08:24:37.447Z,10.55
2022-11-13T08:27:23.677Z,10.60
2022-11-13T08:30:10.146Z,10.65
2022-11-13T08:32:56.125Z,10.48
2022-11-13T08:35:41.811Z,10.65
2022-11-13T08:38:27.923Z,10.79
2022-11-13T08:41:14.467Z,10.94
2022-11-13T08:44:01.218Z,11.20
2022-11-13T08:46:46.951Z,11.20
2022-11-13T08:49:32.611Z,11.14
2022-11-13T08:52:18.403Z,11.37
2022-11-13T08:55:04.399Z,11.54
2022-11-13T08:57:50.848Z,11.64
2022-11-13T09:00:36.978Z,11.60
2022-11-13T09:03:22.506Z,11.46
2022-11-13T09:06:09.086Z,11.45
2022-11-13T09:08:54.999Z,11.68
2022-11-13T09:11:41.296Z,11.53
2022-11-13T09:14:28.106Z,11.63
2022-11-13T09:17:13.693Z,11.61
2022-11-13T09:20:03.775Z,11.79
2022-11-13T09:22:56.996Z,11.99
2022-11-13T09:25:42.811Z,12.12
2022-11-13T09:28:28.808Z,12.15
2022-11-13T09:31:14.786Z,12.44
2022-11-13T09:34:00.764Z,12.24
2022-11-13T09:36:46.900Z,12.38
2022-11-13T09:39:32.762Z,12.39
2022-11-13T09:42:21.439Z,12.36
2022-11-13T09:45:11.934Z,12.75
2022-11-13T09:48:20.644Z,13.13
2022-11-13T09:51:13.547Z,13.17
2022-11-13T09:54:04.277Z,13.40
2022-11-13T09:57:03.478Z,13.72
2022-11-13T10:00:13.296Z,13.82
2022-11-13T10:03:46.151Z,13.66
2022-11-13T10:06:39.890Z,13.52
2022-11-13T10:09:38.063Z,13.29
2022-11-13T10:12:24.030Z,13.22
2022-11-13T10:15:10.850Z,13.29
2022-11-13T10:18:06.404Z,13.30
2022-11-13T10:20:57.854Z,13.29
2022-11-13T10:23:48.873Z,13.40
2022-11-13T10:26:35.586Z,13.24
2022-11-13T10:29:21.766Z,13.51
2022-11-13T10:32:15.858Z,13.49
2022-11-13T10:35:07.292Z,13.43
2022-11-13T10:38:07.771Z,13.49
2022-11-13T10:41:09.041Z,13.66
2022-11-13T10:44:02.563Z,13.63
2022-11-13T10:46:48.323Z,13.78
2022-11-13T10:49:34.016Z,13.77
2022-11-13T10:52:30.399Z,13.65
2022-11-13T10:55:34.264Z,13.81
2022-11-13T10:58:21.154Z,13.80
2022-11-13T11:01:23.706Z,13.92
2022-11-13T11:04:21.954Z,14.03
2022-11-13T11:07:26.001Z,14.00
2022-11-13T11:10:20.995Z,14.04
2022-11-13T11:13:11.809Z,14.16
2022-11-13T11:15:59.964Z,14.38
2022-11-13T11:18:55.049Z,14.39
2022-11-13T11:21:42.660Z,14.50
2022-11-13T11:24:33.757Z,14.52
2022-11-13T11:27:25.256Z,14.59
2022-11-13T11:30:22.867Z,14.66
2022-11-13T11:33:16.857Z,14.50
2022-11-13T11:36:13.625Z,14.68
2022-11-13T11:39:05.741Z,14.78
2022-11-13T11:42:08.569Z,14.84
2022-11-13T11:45:10.037Z,15.02
2022-11-13T11:47:57.734Z,15.01
2022-11-13T11:50:46.329Z,15.06
2022-11-13T11:53:52.893Z,15.16
2022-11-13T11:57:00.170Z,15.18
2022-11-13T11:59:55.123Z,15.09
2022-11-13T12:02:55.924Z,15.00
2022-11-13T12:05:48.091Z,15.08
2022-11-13T12:08:44.711Z,15.24
2022-11-13T12:11:34.345Z,15.23
2022-11-13T12:14:38.648Z,15.26
2022-11-13T12:17:34.806Z,15.52
2022-11-13T12:20:42.900Z,15.32
2022-11-13T12:23:54.100Z,15.36
2022-11-13T12:26:49.266Z,15.00
2022-11-13T12:29:52.109Z,15.11
2022-11-13T12:32:50.030Z,15.30
2022-11-13T12:35:35.764Z,15.07
2022-11-13T12:38:29.456Z,15.13
2022-11-13T12:41:37.101Z,15.28
2022-11-13T12:44:27.560Z,15.23
2022-11-13T12:47:13.582Z,14.77
2022-11-13T12:50:05.773Z,14.81
2022-11-13T12:53:02.312Z,15.04
2022-11-13T12:56:00.022Z,15.04
2022-11-13T12:59:29.082Z,14.91
2022-11-13T13:02:06.494Z,14.80
2022-11-13T13:05:08.437Z,14.93
2022-11-13T13:08:32.899Z,14.99
2022-11-13T13:11:38.832Z,14.90
2022-11-13T13:15:00.240Z,14.97
2022-11-13T13:17:45.991Z,14.91
2022-11-13T13:20:38.090Z,15.04
2022-11-13T13:23:36.265Z,14.85
2022-11-13T13:26:22.674Z,14.60
2022-11-13T13:29:16.462Z,14.79
2022-11-13T13:32:41.575Z,15.10
2022-11-13T13:35:31.508Z,14.70
2022-11-13T13:38:24.517Z,14.74
2022-11-13T13:41:17.833Z,14.81
2022-11-13T13:44:13.330Z,14.79
2022-11-13T13:46:59.690Z,14.82
2022-11-13T13:49:45.298Z,14.90
2022-11-13T13:52:33.461Z,14.83
2022-11-13T13:55:26.438Z,14.67
2022-11-13T13:58:14.081Z,14.80
2022-11-13T14:01:18.163Z,14.82
2022-11-13T14:04:14.706Z,14.81
2022-11-13T14:07:02.160Z,14.81
2022-11-13T14:09:47.878Z,14.59
2022-11-13T14:12:33.689Z,14.72
2022-11-13T14:15:32.535Z,14.60
2022-11-13T14:18:18.341Z,14.85
2022-11-13T14:21:22.151Z,15.10
2022-11-13T14:24:23.226Z,15.28
2022-11-13T14:27:14.883Z,15.26
2022-11-13T14:30:02.480Z,15.22
2022-11-13T14:32:48.492Z,15.14
2022-11-13T14:35:34.515Z,15.06
2022-11-13T14:38:23.505Z,15.07
2022-11-13T14:41:32.240Z,15.16
2022-11-13T14:44:32.082Z,15.07
2022-11-13T14:47:27.262Z,15.39
2022-11-13T14:50:23.289Z,15.51
2022-11-13T14:53:10.498Z,15.46
2022-11-13T14:55:59.682Z,15.23
2022-11-13T14:58:47.392Z,15.18
2022-11-13T15:01:33.714Z,15.69
2022-11-13T15:04:19.619Z,15.78
2022-11-13T15:07:23.327Z,15.74
2022-11-13T15:10:13.828Z,15.71
2022-11-13T15:13:00.464Z,15.39
2022-11-13T15:15:46.441Z,15.21
2022-11-13T15:18:32.099Z,15.22
2022-11-13T15:21:18.517Z,15.20
2022-11-13T15:24:04.437Z,15.06
2022-11-13T15:26:50.290Z,15.00
2022-11-13T15:29:36.196Z,14.87
2022-11-13T15:32:21.797Z,14.76
2022-11-13T15:35:14.496Z,14.61
2022-11-13T15:38:00.269Z,14.52
2022-11-13T15:40:46.284Z,14.23
2022-11-13T15:43:32.059Z,14.08
2022-11-13T15:46:19.701Z,14.00
2022-11-13T15:49:05.359Z,14.09
2022-11-13T15:51:51.109Z,13.86
2022-11-13T15:54:37.737Z,13.81
2022-11-13T15:57:25.642Z,13.76
2022-11-13T16:00:21.512Z,13.53
2022-11-13T16:03:11.685Z,13.63
2022-11-13T16:06:00.732Z,13.57
2022-11-13T16:08:47.099Z,13.46
2022-11-13T16:11:34.311Z,13.34
2022-11-13T16:14:24.577Z,13.19
2022-11-13T16:17:16.587Z,13.14
2022-11-13T16:20:04.391Z,13.08
2022-11-13T16:22:50.316Z,13.02
2022-11-13T16:25:35.931Z,12.91
2022-11-13T16:28:21.816Z,12.72
2022-11-13T16:31:07.614Z,12.71
2022-11-13T16:33:54.415Z,12.52
2022-11-13T16:36:40.882Z,12.57
2022-11-13T16:39:26.984Z,12.44
2022-11-13T16:42:14.358Z,12.23
2022-11-13T16:45:00.248Z,12.15
2022-11-13T16:47:46.493Z,12.17
2022-11-13T16:50:36.816Z,12.10
2022-11-13T16:53:22.459Z,12.05
2022-11-13T16:56:18.558Z,11.95
2022-11-13T16:59:04.334Z,11.95
2022-11-13T17:01:54.481Z,11.93
2022-11-13T17:04:40.437Z,11.87
2022-11-13T17:07:26.138Z,11.78
2022-11-13T17:10:34.760Z,11.68
2022-11-13T17:13:20.838Z,11.66
2022-11-13T17:16:06.698Z,11.69
2022-11-13T17:18:55.349Z,11.71
2022-11-13T17:21:44.259Z,11.72
2022-11-13T17:24:30.427Z,11.62
2022-11-13T17:27:16.306Z,11.47
2022-11-13T17:30:02.403Z,11.45
2022-11-13T17:32:49.456Z,11.53
2022-11-13T17:35:35.165Z,11.41
2022-11-13T17:38:21.231Z,11.32
2022-11-13T17:41:09.914Z,11.29
2022-11-13T17:44:00.805Z,11.24
2022-11-13T17:46:48.326Z,11.15
2022-11-13T17:49:34.284Z,11.17
2022-11-13T17:52:20.364Z,11.20
2022-11-13T17:55:07.590Z,11.09
2022-11-13T17:57:53.575Z,10.96
2022-11-13T18:00:39.357Z,11.06
2022-11-13T18:03:25.230Z,10.92
2022-11-13T18:06:19.478Z,11.04
2022-11-13T18:09:06.299Z,11.03
2022-11-13T18:11:52.123Z,11.06
2022-11-13T18:14:37.748Z,11.07
2022-11-13T18:17:23.935Z,11.10
2022-11-13T18:20:09.847Z,11.09
2022-11-13T18:22:58.693Z,11.15
2022-11-13T18:25:44.578Z,11.16
2022-11-13T18:28:30.571Z,11.17
2022-11-13T18:31:18.325Z,11.13
2022-11-13T18:34:05.493Z,11.24
2022-11-13T18:36:51.218Z,11.31
2022-11-13T18:39:36.796Z,11.33
2022-11-13T18:42:22.691Z,11.35
2022-11-13T18:45:08.869Z,11.47
2022-11-13T18:47:55.121Z,11.56
2022-11-13T18:50:41.233Z,11.65
2022-11-13T18:53:28.273Z,11.58
2022-11-13T18:56:16.990Z,11.60
2022-11-13T18:59:03.061Z,11.42
2022-11-13T19:01:49.101Z,11.23
2022-11-13T19:04:35.257Z,11.29
2022-11-13T19:07:21.447Z,11.23
2022-11-13T19:10:07.711Z,11.11
2022-11-13T19:12:53.834Z,11.13
2022-11-13T19:15:39.607Z,11.10
2022-11-13T19:18:25.720Z,10.96
2022-11-13T19:21:15.543Z,10.92
2022-11-13T19:24:02.443Z,10.89
2022-11-13T19:26:48.410Z,10.69
2022-11-13T19:29:34.298Z,10.72
2022-11-13T19:32:19.887Z,10.66
2022-11-13T19:35:06.019Z,10.65
2022-11-13T19:37:58.024Z,10.68
2022-11-13T19:40:45.830Z,10.58
2022-11-13T19:43:33.456Z,10.42
2022-11-13T19:46:19.890Z,10.43
2022-11-13T19:49:05.579Z,10.44
2022-11-13T19:51:53.713Z,10.42
2022-11-13T19:54:39.638Z,10.46
2022-11-13T19:57:25.295Z,10.45
2022-11-13T20:00:12.923Z,10.23
2022-11-13T20:03:01.550Z,10.35
2022-11-13T20:05:53.615Z,10.23
2022-11-13T20:08:39.262Z,10.06
2022-11-13T20:11:25.200Z,9.93
2022-11-13T20:14:12.351Z,10.04
2022-11-13T20:16:58.040Z,9.97
2022-11-13T20:19:43.758Z,10.03
2022-11-13T20:22:29.635Z,9.94
2022-11-13T20:25:15.480Z,9.97
2022-11-13T20:28:01.299Z,9.86
2022-11-13T20:30:47.041Z,9.94
2022-11-13T20:33:34.541Z,9.93
2022-11-13T20:36:20.309Z,9.87
2022-11-13T20:39:09.311Z,9.90
2022-11-13T20:41:55.369Z,9.86
2022-11-13T20:44:41.302Z,9.81
2022-11-13T20:47:27.040Z,9.82
2022-11-13T20:50:13.198Z,9.76
2022-11-13T20:53:01.343Z,9.70
2022-11-13T20:55:47.046Z,9.75
2022-11-13T20:58:32.976Z,9.87
2022-11-13T21:01:21.007Z,9.88
2022-11-13T21:04:06.999Z,9.94
2022-11-13T21:06:53.064Z,9.99
2022-11-13T21:09:38.787Z,9.96
2022-11-13T21:12:24.642Z,9.94
2022-11-13T21:15:11.013Z,10.01
2022-11-13T21:17:58.332Z,9.84
2022-11-13T21:20:44.062Z,9.98
2022-11-13T21:23:29.753Z,10.08
2022-11-13T21:26:16.116Z,10.01
2022-11-13T21:29:01.799Z,10.05
2022-11-13T21:31:47.459Z,9.98
2022-11-13T21:34:33.120Z,9.96
2022-11-13T21:37:19.006Z,10.03
2022-11-13T21:40:05.683Z,10.07
2022-11-13T21:42:51.782Z,10.17
2022-11-13T21:45:37.544Z,10.07
2022-11-13T21:48:23.349Z,10.20
2022-11-13T21:51:09.227Z,10.16
2022-11-13T21:53:55.772Z,10.09
2022-11-13T21:56:42.192Z,10.08
2022-11-13T21:59:27.963Z,10.18
2022-11-13T22:02:13.753Z,10.35
2022-11-13T22:04:59.784Z,10.36
2022-11-13T22:07:46.519Z,10.11
2022-11-13T22:10:32.239Z,9.99
2022-11-13T22:13:18.240Z,10.18
2022-11-13T22:16:05.622Z,10.08
2022-11-13T22:18:55.310Z,10.03
2022-11-13T22:21:41.594Z,10.01
2022-11-13T22:24:27.590Z,10.11
2022-11-13T22:27:13.203Z,10.20
2022-11-13T22:29:59.053Z,10.13
2022-11-13T22:32:44.886Z,10.01
2022-11-13T22:35:30.589Z,10.06
2022-11-13T22:38:16.705Z,10.03
2022-11-13T22:41:04.283Z,10.17
2022-11-13T22:43:52.122Z,10.27
2022-11-13T22:46:38.558Z,10.21
2022-11-13T22:49:24.162Z,10.12
2022-11-13T22:52:09.853Z,9.88
2022-11-13T22:54:55.658Z,9.93
2022-11-13T22:57:41.229Z,9.83
2022-11-13T23:00:27.353Z,9.97
2022-11-13T23:03:12.981Z,9.94
2022-11-13T23:06:02.610Z,9.96
2022-11-13T23:08:49.717Z,10.05
2022-11-13T23:11:38.524Z,10.10
2022-11-13T23:14:24.355Z,10.09
2022-11-13T23:17:10.006Z,9.88
2022-11-13T23:19:56.102Z,9.79
2022-11-13T23:22:41.859Z,9.85
2022-11-13T23:25:27.894Z,9.88
2022-11-13T23:28:14.063Z,9.88
2022-11-13T23:30:59.831Z,9.89
2022-11-13T23:33:46.044Z,10.06
2022-11-13T23:36:31.670Z,9.92
2022-11-13T23:39:17.374Z,9.99
2022-11-13T23:42:03.256Z,9.86
2022-11-13T23:44:49.056Z,9.81
2022-11-13T23:47:35.151Z,9.79
2022-11-13T23:50:20.875Z,9.77
2022-11-13T23:53:06.859Z,9.70
2022-11-13T23:55:52.682Z,9.78
2022-11-13T23:58:38.395Z,9.83
